sensor_id;sensor_type;location;lat;lon;timestamp;P1;durP1;ratioP1;P2;durP2;ratioP2
7074;SDS011;3578;51.568;6.932;2022-12-18T00:02:26;61.07;;;36.40;;
7074;SDS011;3578;51.568;6.932;2022-12-18T00:04:53;60.43;;;36.27;;
7074;SDS011;3578;51.568;6.932;2022-12-18T00:07:20;60.00;;;35.90;;
7074;SDS011;3578;51.568;6.932;2022-12-18T00:09:47;65.13;;;35.97;;
7074;SDS011;3578;51.568;6.932;2022-12-18T00:12:14;59.17;;;33.97;;
7074;SDS011;3578;51.568;6.932;2022-12-18T00:14:41;61.60;;;35.73;;
7074;SDS011;3578;51.568;6.932;2022-12-18T00:17:10;62.63;;;36.10;;
7074;SDS011;3578;51.568;6.932;2022-12-18T00:19:39;59.70;;;34.40;;
7074;SDS011;3578;51.568;6.932;2022-12-18T00:22:06;58.60;;;33.60;;
7074;SDS011;3578;51.568;6.932;2022-12-18T00:24:33;54.70;;;33.13;;
7074;SDS011;3578;51.568;6.932;2022-12-18T00:27:00;56.83;;;33.53;;
7074;SDS011;3578;51.568;6.932;2022-12-18T00:29:27;62.10;;;34.40;;
7074;SDS011;3578;51.568;6.932;2022-12-18T00:31:53;59.43;;;34.63;;
7074;SDS011;3578;51.568;6.932;2022-12-18T00:34:20;60.80;;;35.00;;
7074;SDS011;3578;51.568;6.932;2022-12-18T00:36:49;56.47;;;34.40;;
7074;SDS011;3578;51.568;6.932;2022-12-18T00:39:16;58.10;;;33.23;;
7074;SDS011;3578;51.568;6.932;2022-12-18T00:41:43;54.03;;;32.90;;
7074;SDS011;3578;51.568;6.932;2022-12-18T00:44:27;54.33;;;31.90;;
7074;SDS011;3578;51.568;6.932;2022-12-18T00:46:54;57.97;;;34.07;;
7074;SDS011;3578;51.568;6.932;2022-12-18T00:49:22;61.33;;;33.00;;
7074;SDS011;3578;51.568;6.932;2022-12-18T00:51:50;51.87;;;32.33;;
7074;SDS011;3578;51.568;6.932;2022-12-18T00:54:19;54.50;;;33.67;;
7074;SDS011;3578;51.568;6.932;2022-12-18T00:56:46;52.40;;;32.30;;
7074;SDS011;3578;51.568;6.932;2022-12-18T00:59:13;56.50;;;32.53;;
7074;SDS011;3578;51.568;6.932;2022-12-18T01:01:40;51.57;;;32.27;;
7074;SDS011;3578;51.568;6.932;2022-12-18T01:04:07;53.57;;;31.97;;
7074;SDS011;3578;51.568;6.932;2022-12-18T01:06:34;50.87;;;32.90;;
7074;SDS011;3578;51.568;6.932;2022-12-18T01:09:02;52.87;;;32.80;;
7074;SDS011;3578;51.568;6.932;2022-12-18T01:11:30;51.27;;;30.97;;
7074;SDS011;3578;51.568;6.932;2022-12-18T01:13:57;52.10;;;30.90;;
7074;SDS011;3578;51.568;6.932;2022-12-18T01:16:27;54.93;;;32.03;;
7074;SDS011;3578;51.568;6.932;2022-12-18T01:18:54;57.90;;;32.30;;
7074;SDS011;3578;51.568;6.932;2022-12-18T01:21:22;53.17;;;31.53;;
7074;SDS011;3578;51.568;6.932;2022-12-18T01:23:53;48.80;;;29.80;;
7074;SDS011;3578;51.568;6.932;2022-12-18T01:26:23;52.97;;;31.17;;
7074;SDS011;3578;51.568;6.932;2022-12-18T01:28:53;52.63;;;31.60;;
7074;SDS011;3578;51.568;6.932;2022-12-18T01:31:21;54.83;;;30.23;;
7074;SDS011;3578;51.568;6.932;2022-12-18T01:33:50;52.17;;;31.97;;
7074;SDS011;3578;51.568;6.932;2022-12-18T01:36:18;46.90;;;29.50;;
7074;SDS011;3578;51.568;6.932;2022-12-18T01:38:48;57.80;;;32.30;;
7074;SDS011;3578;51.568;6.932;2022-12-18T01:41:16;53.07;;;31.70;;
7074;SDS011;3578;51.568;6.932;2022-12-18T01:43:49;52.93;;;30.30;;
7074;SDS011;3578;51.568;6.932;2022-12-18T01:46:19;52.20;;;31.27;;
7074;SDS011;3578;51.568;6.932;2022-12-18T01:48:51;49.20;;;31.13;;
7074;SDS011;3578;51.568;6.932;2022-12-18T01:51:21;49.70;;;29.37;;
7074;SDS011;3578;51.568;6.932;2022-12-18T01:53:48;50.40;;;30.27;;
7074;SDS011;3578;51.568;6.932;2022-12-18T01:56:16;55.03;;;32.10;;
7074;SDS011;3578;51.568;6.932;2022-12-18T01:58:48;49.00;;;29.60;;
7074;SDS011;3578;51.568;6.932;2022-12-18T02:01:23;58.67;;;31.27;;
7074;SDS011;3578;51.568;6.932;2022-12-18T02:03:51;55.43;;;31.43;;
7074;SDS011;3578;51.568;6.932;2022-12-18T02:06:19;51.70;;;32.13;;
7074;SDS011;3578;51.568;6.932;2022-12-18T02:08:57;48.50;;;30.47;;
7074;SDS011;3578;51.568;6.932;2022-12-18T02:11:39;50.50;;;32.03;;
7074;SDS011;3578;51.568;6.932;2022-12-18T02:14:17;58.40;;;33.17;;
7074;SDS011;3578;51.568;6.932;2022-12-18T02:16:55;49.63;;;30.27;;
7074;SDS011;3578;51.568;6.932;2022-12-18T02:19:47;49.70;;;29.43;;
7074;SDS011;3578;51.568;6.932;2022-12-18T02:22:29;50.93;;;30.07;;
7074;SDS011;3578;51.568;6.932;2022-12-18T02:25:13;49.80;;;30.43;;
7074;SDS011;3578;51.568;6.932;2022-12-18T02:27:51;51.87;;;30.20;;
7074;SDS011;3578;51.568;6.932;2022-12-18T02:30:21;51.00;;;29.80;;
7074;SDS011;3578;51.568;6.932;2022-12-18T02:32:49;51.27;;;30.10;;
7074;SDS011;3578;51.568;6.932;2022-12-18T02:35:20;50.40;;;30.97;;
7074;SDS011;3578;51.568;6.932;2022-12-18T02:37:50;56.90;;;30.90;;
7074;SDS011;3578;51.568;6.932;2022-12-18T02:40:22;53.60;;;31.03;;
7074;SDS011;3578;51.568;6.932;2022-12-18T02:42:54;52.70;;;29.80;;
7074;SDS011;3578;51.568;6.932;2022-12-18T02:45:28;49.33;;;30.10;;
7074;SDS011;3578;51.568;6.932;2022-12-18T02:47:55;58.90;;;30.27;;
7074;SDS011;3578;51.568;6.932;2022-12-18T02:50:24;45.33;;;27.20;;
7074;SDS011;3578;51.568;6.932;2022-12-18T02:53:03;45.80;;;28.67;;
7074;SDS011;3578;51.568;6.932;2022-12-18T02:55:44;47.70;;;28.67;;
7074;SDS011;3578;51.568;6.932;2022-12-18T02:58:27;48.03;;;28.70;;
7074;SDS011;3578;51.568;6.932;2022-12-18T03:01:06;52.87;;;29.23;;
7074;SDS011;3578;51.568;6.932;2022-12-18T03:03:42;44.93;;;27.23;;
7074;SDS011;3578;51.568;6.932;2022-12-18T03:06:17;48.10;;;29.07;;
7074;SDS011;3578;51.568;6.932;2022-12-18T03:08:51;46.50;;;27.50;;
7074;SDS011;3578;51.568;6.932;2022-12-18T03:11:24;48.27;;;29.00;;
7074;SDS011;3578;51.568;6.932;2022-12-18T03:14:09;49.57;;;28.60;;
7074;SDS011;3578;51.568;6.932;2022-12-18T03:16:39;47.93;;;29.00;;
7074;SDS011;3578;51.568;6.932;2022-12-18T03:19:10;48.87;;;25.83;;
7074;SDS011;3578;51.568;6.932;2022-12-18T03:21:42;51.33;;;28.73;;
7074;SDS011;3578;51.568;6.932;2022-12-18T03:24:12;50.37;;;29.10;;
7074;SDS011;3578;51.568;6.932;2022-12-18T03:26:40;49.87;;;29.83;;
7074;SDS011;3578;51.568;6.932;2022-12-18T03:29:14;54.47;;;29.27;;
7074;SDS011;3578;51.568;6.932;2022-12-18T03:31:47;52.73;;;28.97;;
7074;SDS011;3578;51.568;6.932;2022-12-18T03:34:21;51.13;;;29.73;;
7074;SDS011;3578;51.568;6.932;2022-12-18T03:36:52;49.03;;;29.20;;
7074;SDS011;3578;51.568;6.932;2022-12-18T03:39:19;49.27;;;30.00;;
7074;SDS011;3578;51.568;6.932;2022-12-18T03:41:47;55.27;;;30.03;;
7074;SDS011;3578;51.568;6.932;2022-12-18T03:44:26;49.37;;;29.23;;
7074;SDS011;3578;51.568;6.932;2022-12-18T03:46:58;45.93;;;27.40;;
7074;SDS011;3578;51.568;6.932;2022-12-18T03:49:34;45.20;;;28.43;;
7074;SDS011;3578;51.568;6.932;2022-12-18T03:52:06;45.37;;;27.80;;
7074;SDS011;3578;51.568;6.932;2022-12-18T03:54:39;47.73;;;28.67;;
7074;SDS011;3578;51.568;6.932;2022-12-18T03:57:09;48.50;;;28.20;;
7074;SDS011;3578;51.568;6.932;2022-12-18T03:59:43;49.23;;;28.73;;
7074;SDS011;3578;51.568;6.932;2022-12-18T04:02:11;46.03;;;28.57;;
7074;SDS011;3578;51.568;6.932;2022-12-18T04:04:41;53.40;;;28.47;;
7074;SDS011;3578;51.568;6.932;2022-12-18T04:07:09;49.87;;;30.13;;
7074;SDS011;3578;51.568;6.932;2022-12-18T04:09:38;50.97;;;28.03;;
7074;SDS011;3578;51.568;6.932;2022-12-18T04:12:08;47.83;;;28.03;;
7074;SDS011;3578;51.568;6.932;2022-12-18T04:14:35;47.60;;;28.60;;
7074;SDS011;3578;51.568;6.932;2022-12-18T04:17:03;53.50;;;29.77;;
7074;SDS011;3578;51.568;6.932;2022-12-18T04:19:30;52.00;;;30.57;;
7074;SDS011;3578;51.568;6.932;2022-12-18T04:21:57;51.57;;;28.90;;
7074;SDS011;3578;51.568;6.932;2022-12-18T04:24:24;50.73;;;29.00;;
7074;SDS011;3578;51.568;6.932;2022-12-18T04:26:51;51.23;;;30.00;;
7074;SDS011;3578;51.568;6.932;2022-12-18T04:29:18;42.43;;;26.07;;
7074;SDS011;3578;51.568;6.932;2022-12-18T04:31:45;52.57;;;28.50;;
7074;SDS011;3578;51.568;6.932;2022-12-18T04:34:13;47.27;;;28.97;;
7074;SDS011;3578;51.568;6.932;2022-12-18T04:36:40;49.57;;;28.80;;
7074;SDS011;3578;51.568;6.932;2022-12-18T04:39:07;45.80;;;27.47;;
7074;SDS011;3578;51.568;6.932;2022-12-18T04:41:34;49.23;;;28.77;;
7074;SDS011;3578;51.568;6.932;2022-12-18T04:44:01;49.97;;;28.97;;
7074;SDS011;3578;51.568;6.932;2022-12-18T04:46:28;46.80;;;28.83;;
7074;SDS011;3578;51.568;6.932;2022-12-18T04:48:55;45.00;;;28.20;;
7074;SDS011;3578;51.568;6.932;2022-12-18T04:51:24;45.53;;;27.23;;
7074;SDS011;3578;51.568;6.932;2022-12-18T04:53:51;40.63;;;28.07;;
7074;SDS011;3578;51.568;6.932;2022-12-18T04:56:18;44.40;;;28.20;;
7074;SDS011;3578;51.568;6.932;2022-12-18T04:58:46;47.40;;;28.23;;
7074;SDS011;3578;51.568;6.932;2022-12-18T05:01:13;48.73;;;28.90;;
7074;SDS011;3578;51.568;6.932;2022-12-18T05:03:43;49.50;;;27.57;;
7074;SDS011;3578;51.568;6.932;2022-12-18T05:06:10;45.47;;;26.97;;
7074;SDS011;3578;51.568;6.932;2022-12-18T05:08:38;43.03;;;26.30;;
7074;SDS011;3578;51.568;6.932;2022-12-18T05:11:06;46.70;;;28.10;;
7074;SDS011;3578;51.568;6.932;2022-12-18T05:13:35;46.43;;;27.33;;
7074;SDS011;3578;51.568;6.932;2022-12-18T05:16:03;41.93;;;25.20;;
7074;SDS011;3578;51.568;6.932;2022-12-18T05:18:31;40.23;;;24.83;;
7074;SDS011;3578;51.568;6.932;2022-12-18T05:20:58;44.37;;;27.00;;
7074;SDS011;3578;51.568;6.932;2022-12-18T05:23:25;43.30;;;26.80;;
7074;SDS011;3578;51.568;6.932;2022-12-18T05:25:54;40.40;;;24.93;;
7074;SDS011;3578;51.568;6.932;2022-12-18T05:28:24;43.47;;;26.27;;
7074;SDS011;3578;51.568;6.932;2022-12-18T05:30:53;41.43;;;25.63;;
7074;SDS011;3578;51.568;6.932;2022-12-18T05:33:23;41.57;;;26.17;;
7074;SDS011;3578;51.568;6.932;2022-12-18T05:35:54;41.50;;;26.73;;
7074;SDS011;3578;51.568;6.932;2022-12-18T05:38:23;43.77;;;25.20;;
7074;SDS011;3578;51.568;6.932;2022-12-18T05:40:52;40.70;;;24.93;;
7074;SDS011;3578;51.568;6.932;2022-12-18T05:43:22;40.27;;;24.63;;
7074;SDS011;3578;51.568;6.932;2022-12-18T05:45:51;42.57;;;24.23;;
7074;SDS011;3578;51.568;6.932;2022-12-18T05:48:19;39.70;;;24.90;;
7074;SDS011;3578;51.568;6.932;2022-12-18T05:50:47;43.23;;;25.10;;
7074;SDS011;3578;51.568;6.932;2022-12-18T05:53:16;42.50;;;25.00;;
7074;SDS011;3578;51.568;6.932;2022-12-18T05:55:45;40.43;;;24.73;;
7074;SDS011;3578;51.568;6.932;2022-12-18T05:58:14;41.10;;;24.77;;
7074;SDS011;3578;51.568;6.932;2022-12-18T06:00:44;46.80;;;26.60;;
7074;SDS011;3578;51.568;6.932;2022-12-18T06:03:12;43.10;;;25.90;;
7074;SDS011;3578;51.568;6.932;2022-12-18T06:05:40;42.87;;;25.37;;
7074;SDS011;3578;51.568;6.932;2022-12-18T06:08:09;49.03;;;27.73;;
7074;SDS011;3578;51.568;6.932;2022-12-18T06:10:37;43.03;;;27.50;;
7074;SDS011;3578;51.568;6.932;2022-12-18T06:13:05;41.27;;;25.27;;
7074;SDS011;3578;51.568;6.932;2022-12-18T06:15:35;43.50;;;25.50;;
7074;SDS011;3578;51.568;6.932;2022-12-18T06:18:03;50.47;;;27.70;;
7074;SDS011;3578;51.568;6.932;2022-12-18T06:20:30;39.43;;;26.23;;
7074;SDS011;3578;51.568;6.932;2022-12-18T06:22:57;43.37;;;25.07;;
7074;SDS011;3578;51.568;6.932;2022-12-18T06:25:24;49.20;;;28.20;;
7074;SDS011;3578;51.568;6.932;2022-12-18T06:27:51;48.57;;;26.17;;
7074;SDS011;3578;51.568;6.932;2022-12-18T06:30:18;48.50;;;28.67;;
7074;SDS011;3578;51.568;6.932;2022-12-18T06:32:46;47.80;;;27.03;;
7074;SDS011;3578;51.568;6.932;2022-12-18T06:35:14;46.63;;;28.93;;
7074;SDS011;3578;51.568;6.932;2022-12-18T06:37:41;45.93;;;26.53;;
7074;SDS011;3578;51.568;6.932;2022-12-18T06:40:09;46.77;;;27.17;;
7074;SDS011;3578;51.568;6.932;2022-12-18T06:42:36;45.23;;;27.27;;
7074;SDS011;3578;51.568;6.932;2022-12-18T06:45:04;45.23;;;26.83;;
7074;SDS011;3578;51.568;6.932;2022-12-18T06:47:33;45.17;;;27.07;;
7074;SDS011;3578;51.568;6.932;2022-12-18T06:50:01;46.97;;;27.40;;
7074;SDS011;3578;51.568;6.932;2022-12-18T06:52:28;52.03;;;27.90;;
7074;SDS011;3578;51.568;6.932;2022-12-18T06:54:58;50.20;;;27.70;;
7074;SDS011;3578;51.568;6.932;2022-12-18T06:57:25;53.87;;;28.63;;
7074;SDS011;3578;51.568;6.932;2022-12-18T06:59:52;47.13;;;27.20;;
7074;SDS011;3578;51.568;6.932;2022-12-18T07:02:19;44.00;;;27.03;;
7074;SDS011;3578;51.568;6.932;2022-12-18T07:04:46;47.87;;;28.07;;
7074;SDS011;3578;51.568;6.932;2022-12-18T07:07:18;44.53;;;27.47;;
7074;SDS011;3578;51.568;6.932;2022-12-18T07:09:45;46.03;;;27.63;;
7074;SDS011;3578;51.568;6.932;2022-12-18T07:12:12;48.73;;;26.77;;
7074;SDS011;3578;51.568;6.932;2022-12-18T07:14:39;52.73;;;28.13;;
7074;SDS011;3578;51.568;6.932;2022-12-18T07:17:06;47.23;;;28.40;;
7074;SDS011;3578;51.568;6.932;2022-12-18T07:19:33;46.60;;;28.90;;
7074;SDS011;3578;51.568;6.932;2022-12-18T07:22:00;51.50;;;29.63;;
7074;SDS011;3578;51.568;6.932;2022-12-18T07:24:28;47.40;;;28.77;;
7074;SDS011;3578;51.568;6.932;2022-12-18T07:26:55;50.23;;;27.30;;
7074;SDS011;3578;51.568;6.932;2022-12-18T07:29:22;53.10;;;28.07;;
7074;SDS011;3578;51.568;6.932;2022-12-18T07:31:49;51.40;;;29.20;;
7074;SDS011;3578;51.568;6.932;2022-12-18T07:34:16;48.87;;;27.23;;
7074;SDS011;3578;51.568;6.932;2022-12-18T07:36:44;48.83;;;27.70;;
7074;SDS011;3578;51.568;6.932;2022-12-18T07:39:11;46.80;;;27.63;;
7074;SDS011;3578;51.568;6.932;2022-12-18T07:41:39;54.10;;;29.33;;
7074;SDS011;3578;51.568;6.932;2022-12-18T07:44:10;42.37;;;26.03;;
7074;SDS011;3578;51.568;6.932;2022-12-18T07:46:38;43.00;;;26.90;;
7074;SDS011;3578;51.568;6.932;2022-12-18T07:49:05;49.57;;;27.60;;
7074;SDS011;3578;51.568;6.932;2022-12-18T07:51:32;48.43;;;26.20;;
7074;SDS011;3578;51.568;6.932;2022-12-18T07:53:59;49.90;;;27.90;;
7074;SDS011;3578;51.568;6.932;2022-12-18T07:56:26;44.33;;;26.40;;
7074;SDS011;3578;51.568;6.932;2022-12-18T07:58:56;46.20;;;25.77;;
7074;SDS011;3578;51.568;6.932;2022-12-18T08:01:24;39.60;;;24.70;;
7074;SDS011;3578;51.568;6.932;2022-12-18T08:03:51;42.07;;;26.17;;
7074;SDS011;3578;51.568;6.932;2022-12-18T08:06:18;52.30;;;28.73;;
7074;SDS011;3578;51.568;6.932;2022-12-18T08:08:45;42.97;;;26.27;;
7074;SDS011;3578;51.568;6.932;2022-12-18T08:11:12;43.63;;;27.10;;
7074;SDS011;3578;51.568;6.932;2022-12-18T08:13:39;47.00;;;27.50;;
7074;SDS011;3578;51.568;6.932;2022-12-18T08:16:08;46.23;;;27.67;;
7074;SDS011;3578;51.568;6.932;2022-12-18T08:18:36;49.30;;;27.73;;
7074;SDS011;3578;51.568;6.932;2022-12-18T08:21:09;50.20;;;27.67;;
7074;SDS011;3578;51.568;6.932;2022-12-18T08:23:37;45.70;;;27.53;;
7074;SDS011;3578;51.568;6.932;2022-12-18T08:26:05;40.23;;;26.93;;
7074;SDS011;3578;51.568;6.932;2022-12-18T08:28:32;45.47;;;27.40;;
7074;SDS011;3578;51.568;6.932;2022-12-18T08:30:59;46.23;;;27.10;;
7074;SDS011;3578;51.568;6.932;2022-12-18T08:33:28;39.47;;;26.60;;
7074;SDS011;3578;51.568;6.932;2022-12-18T08:35:55;49.13;;;28.80;;
7074;SDS011;3578;51.568;6.932;2022-12-18T08:38:23;42.43;;;27.00;;
7074;SDS011;3578;51.568;6.932;2022-12-18T08:40:53;49.30;;;29.20;;
7074;SDS011;3578;51.568;6.932;2022-12-18T08:43:25;42.80;;;26.97;;
7074;SDS011;3578;51.568;6.932;2022-12-18T08:46:09;48.50;;;27.13;;
7074;SDS011;3578;51.568;6.932;2022-12-18T08:48:37;40.80;;;27.03;;
7074;SDS011;3578;51.568;6.932;2022-12-18T08:51:04;49.13;;;27.07;;
7074;SDS011;3578;51.568;6.932;2022-12-18T08:53:31;55.43;;;31.57;;
7074;SDS011;3578;51.568;6.932;2022-12-18T08:55:58;43.60;;;28.07;;
7074;SDS011;3578;51.568;6.932;2022-12-18T08:58:25;46.90;;;29.83;;
7074;SDS011;3578;51.568;6.932;2022-12-18T09:00:52;51.20;;;30.93;;
7074;SDS011;3578;51.568;6.932;2022-12-18T09:03:19;57.00;;;31.33;;
7074;SDS011;3578;51.568;6.932;2022-12-18T09:05:49;61.40;;;31.10;;
7074;SDS011;3578;51.568;6.932;2022-12-18T09:08:16;52.97;;;31.17;;
7074;SDS011;3578;51.568;6.932;2022-12-18T09:10:43;51.53;;;29.90;;
7074;SDS011;3578;51.568;6.932;2022-12-18T09:13:12;50.33;;;31.30;;
7074;SDS011;3578;51.568;6.932;2022-12-18T09:15:40;53.30;;;33.60;;
7074;SDS011;3578;51.568;6.932;2022-12-18T09:18:08;55.07;;;32.97;;
7074;SDS011;3578;51.568;6.932;2022-12-18T09:20:35;50.43;;;31.57;;
7074;SDS011;3578;51.568;6.932;2022-12-18T09:23:04;52.07;;;31.93;;
7074;SDS011;3578;51.568;6.932;2022-12-18T09:25:32;50.03;;;30.00;;
7074;SDS011;3578;51.568;6.932;2022-12-18T09:28:02;49.70;;;30.50;;
7074;SDS011;3578;51.568;6.932;2022-12-18T09:30:36;46.23;;;31.23;;
7074;SDS011;3578;51.568;6.932;2022-12-18T09:33:04;46.90;;;31.50;;
7074;SDS011;3578;51.568;6.932;2022-12-18T09:35:31;42.87;;;29.13;;
7074;SDS011;3578;51.568;6.932;2022-12-18T09:37:58;43.83;;;30.27;;
7074;SDS011;3578;51.568;6.932;2022-12-18T09:40:27;41.27;;;28.33;;
7074;SDS011;3578;51.568;6.932;2022-12-18T09:43:00;40.63;;;27.20;;
7074;SDS011;3578;51.568;6.932;2022-12-18T09:45:31;39.93;;;26.63;;
7074;SDS011;3578;51.568;6.932;2022-12-18T09:48:08;40.10;;;26.70;;
7074;SDS011;3578;51.568;6.932;2022-12-18T09:50:41;42.80;;;28.47;;
7074;SDS011;3578;51.568;6.932;2022-12-18T09:53:11;41.97;;;28.40;;
7074;SDS011;3578;51.568;6.932;2022-12-18T09:55:44;40.73;;;26.97;;
7074;SDS011;3578;51.568;6.932;2022-12-18T09:58:15;38.03;;;27.60;;
7074;SDS011;3578;51.568;6.932;2022-12-18T10:00:51;39.97;;;25.90;;
7074;SDS011;3578;51.568;6.932;2022-12-18T10:03:18;37.03;;;26.33;;
7074;SDS011;3578;51.568;6.932;2022-12-18T10:05:49;39.67;;;25.27;;
7074;SDS011;3578;51.568;6.932;2022-12-18T10:08:30;37.57;;;24.73;;
7074;SDS011;3578;51.568;6.932;2022-12-18T10:11:16;35.90;;;24.90;;
7074;SDS011;3578;51.568;6.932;2022-12-18T10:14:06;34.97;;;23.67;;
7074;SDS011;3578;51.568;6.932;2022-12-18T10:16:47;29.43;;;21.30;;
7074;SDS011;3578;51.568;6.932;2022-12-18T10:19:34;31.73;;;21.70;;
7074;SDS011;3578;51.568;6.932;2022-12-18T10:22:16;26.30;;;20.30;;
7074;SDS011;3578;51.568;6.932;2022-12-18T10:24:54;28.87;;;21.07;;
7074;SDS011;3578;51.568;6.932;2022-12-18T10:27:30;24.43;;;18.60;;
7074;SDS011;3578;51.568;6.932;2022-12-18T10:29:57;27.10;;;20.10;;
7074;SDS011;3578;51.568;6.932;2022-12-18T10:32:27;25.50;;;19.00;;
7074;SDS011;3578;51.568;6.932;2022-12-18T10:34:57;28.13;;;17.90;;
7074;SDS011;3578;51.568;6.932;2022-12-18T10:37:25;24.03;;;18.60;;
7074;SDS011;3578;51.568;6.932;2022-12-18T10:40:08;28.17;;;19.07;;
7074;SDS011;3578;51.568;6.932;2022-12-18T10:42:41;19.93;;;16.13;;
7074;SDS011;3578;51.568;6.932;2022-12-18T10:45:09;19.97;;;15.03;;
7074;SDS011;3578;51.568;6.932;2022-12-18T10:47:41;12.60;;;10.93;;
7074;SDS011;3578;51.568;6.932;2022-12-18T10:50:18;13.63;;;10.07;;
7074;SDS011;3578;51.568;6.932;2022-12-18T10:52:54;20.50;;;14.80;;
7074;SDS011;3578;51.568;6.932;2022-12-18T10:55:23;28.40;;;15.90;;
7074;SDS011;3578;51.568;6.932;2022-12-18T10:58:02;21.23;;;15.90;;
7074;SDS011;3578;51.568;6.932;2022-12-18T11:00:43;11.83;;;10.57;;
7074;SDS011;3578;51.568;6.932;2022-12-18T11:06:04;19.33;;;15.27;;
7074;SDS011;3578;51.568;6.932;2022-12-18T11:08:35;20.33;;;16.03;;
7074;SDS011;3578;51.568;6.932;2022-12-18T11:11:02;22.13;;;16.90;;
7074;SDS011;3578;51.568;6.932;2022-12-18T11:13:34;20.13;;;15.10;;
7074;SDS011;3578;51.568;6.932;2022-12-18T11:16:01;21.73;;;17.60;;
7074;SDS011;3578;51.568;6.932;2022-12-18T11:18:28;24.53;;;19.00;;
7074;SDS011;3578;51.568;6.932;2022-12-18T11:20:59;23.73;;;17.60;;
7074;SDS011;3578;51.568;6.932;2022-12-18T11:23:33;22.33;;;18.47;;
7074;SDS011;3578;51.568;6.932;2022-12-18T11:26:02;24.47;;;19.13;;
7074;SDS011;3578;51.568;6.932;2022-12-18T11:28:36;25.03;;;20.03;;
7074;SDS011;3578;51.568;6.932;2022-12-18T11:33:57;30.00;;;23.30;;
7074;SDS011;3578;51.568;6.932;2022-12-18T11:36:31;34.23;;;24.00;;
7074;SDS011;3578;51.568;6.932;2022-12-18T11:39:05;31.00;;;23.07;;
7074;SDS011;3578;51.568;6.932;2022-12-18T11:41:41;33.27;;;22.43;;
7074;SDS011;3578;51.568;6.932;2022-12-18T11:44:34;28.43;;;19.90;;
7074;SDS011;3578;51.568;6.932;2022-12-18T11:47:09;20.00;;;16.60;;
7074;SDS011;3578;51.568;6.932;2022-12-18T11:49:47;20.70;;;15.90;;
7074;SDS011;3578;51.568;6.932;2022-12-18T11:52:17;21.00;;;17.17;;
7074;SDS011;3578;51.568;6.932;2022-12-18T11:54:50;18.23;;;14.13;;
7074;SDS011;3578;51.568;6.932;2022-12-18T11:57:21;17.83;;;14.00;;
7074;SDS011;3578;51.568;6.932;2022-12-18T12:00:04;18.10;;;15.40;;
7074;SDS011;3578;51.568;6.932;2022-12-18T12:02:43;20.20;;;15.43;;
7074;SDS011;3578;51.568;6.932;2022-12-18T12:05:42;22.00;;;16.97;;
7074;SDS011;3578;51.568;6.932;2022-12-18T12:08:23;20.23;;;15.73;;
7074;SDS011;3578;51.568;6.932;2022-12-18T12:11:05;20.17;;;15.37;;
7074;SDS011;3578;51.568;6.932;2022-12-18T12:13:40;20.97;;;14.20;;
7074;SDS011;3578;51.568;6.932;2022-12-18T12:16:21;19.03;;;15.50;;
7074;SDS011;3578;51.568;6.932;2022-12-18T12:19:00;23.03;;;15.80;;
7074;SDS011;3578;51.568;6.932;2022-12-18T12:21:39;17.63;;;15.23;;
7074;SDS011;3578;51.568;6.932;2022-12-18T12:24:12;20.03;;;16.23;;
7074;SDS011;3578;51.568;6.932;2022-12-18T12:27:02;20.27;;;16.23;;
7074;SDS011;3578;51.568;6.932;2022-12-18T12:29:42;22.03;;;16.40;;
7074;SDS011;3578;51.568;6.932;2022-12-18T12:32:28;19.27;;;16.27;;
7074;SDS011;3578;51.568;6.932;2022-12-18T12:35:26;19.30;;;14.90;;
7074;SDS011;3578;51.568;6.932;2022-12-18T12:38:05;19.43;;;15.80;;
7074;SDS011;3578;51.568;6.932;2022-12-18T12:40:38;20.77;;;16.57;;
7074;SDS011;3578;51.568;6.932;2022-12-18T12:43:21;20.97;;;17.30;;
7074;SDS011;3578;51.568;6.932;2022-12-18T12:45:54;19.83;;;17.43;;
7074;SDS011;3578;51.568;6.932;2022-12-18T12:48:31;18.93;;;16.50;;
7074;SDS011;3578;51.568;6.932;2022-12-18T12:51:08;20.57;;;17.37;;
7074;SDS011;3578;51.568;6.932;2022-12-18T12:53:42;20.00;;;16.80;;
7074;SDS011;3578;51.568;6.932;2022-12-18T12:56:10;19.17;;;15.37;;
7074;SDS011;3578;51.568;6.932;2022-12-18T12:58:44;20.80;;;16.97;;
7074;SDS011;3578;51.568;6.932;2022-12-18T13:01:26;21.57;;;16.80;;
7074;SDS011;3578;51.568;6.932;2022-12-18T13:04:06;20.90;;;15.20;;
7074;SDS011;3578;51.568;6.932;2022-12-18T13:06:46;20.43;;;15.93;;
7074;SDS011;3578;51.568;6.932;2022-12-18T13:09:22;20.10;;;16.40;;
7074;SDS011;3578;51.568;6.932;2022-12-18T13:11:49;19.30;;;16.60;;
7074;SDS011;3578;51.568;6.932;2022-12-18T13:14:35;19.10;;;16.43;;
7074;SDS011;3578;51.568;6.932;2022-12-18T13:20:10;22.77;;;18.40;;
7074;SDS011;3578;51.568;6.932;2022-12-18T13:22:40;28.40;;;19.83;;
7074;SDS011;3578;51.568;6.932;2022-12-18T13:25:27;21.00;;;18.10;;
7074;SDS011;3578;51.568;6.932;2022-12-18T13:28:05;21.93;;;18.40;;
7074;SDS011;3578;51.568;6.932;2022-12-18T13:30:44;26.33;;;20.03;;
7074;SDS011;3578;51.568;6.932;2022-12-18T13:36:27;24.00;;;19.07;;
7074;SDS011;3578;51.568;6.932;2022-12-18T13:45:35;20.17;;;17.07;;
7074;SDS011;3578;51.568;6.932;2022-12-18T13:48:14;27.00;;;17.30;;
7074;SDS011;3578;51.568;6.932;2022-12-18T13:50:49;22.50;;;16.90;;
7074;SDS011;3578;51.568;6.932;2022-12-18T13:53:23;22.13;;;17.57;;
7074;SDS011;3578;51.568;6.932;2022-12-18T13:55:53;21.50;;;16.40;;
7074;SDS011;3578;51.568;6.932;2022-12-18T13:58:20;24.77;;;17.80;;
7074;SDS011;3578;51.568;6.932;2022-12-18T14:00:47;22.50;;;18.40;;
7074;SDS011;3578;51.568;6.932;2022-12-18T14:03:16;17.97;;;14.77;;
7074;SDS011;3578;51.568;6.932;2022-12-18T14:05:47;20.23;;;15.53;;
7074;SDS011;3578;51.568;6.932;2022-12-18T14:08:32;17.10;;;14.13;;
7074;SDS011;3578;51.568;6.932;2022-12-18T14:11:05;22.50;;;15.17;;
7074;SDS011;3578;51.568;6.932;2022-12-18T14:13:33;18.13;;;14.70;;
7074;SDS011;3578;51.568;6.932;2022-12-18T14:16:05;21.93;;;14.50;;
7074;SDS011;3578;51.568;6.932;2022-12-18T14:18:36;17.80;;;14.97;;
7074;SDS011;3578;51.568;6.932;2022-12-18T14:21:18;19.20;;;15.00;;
7074;SDS011;3578;51.568;6.932;2022-12-18T14:23:50;17.30;;;14.70;;
7074;SDS011;3578;51.568;6.932;2022-12-18T14:26:38;21.13;;;14.23;;
7074;SDS011;3578;51.568;6.932;2022-12-18T14:29:18;16.90;;;13.70;;
7074;SDS011;3578;51.568;6.932;2022-12-18T14:32:06;18.00;;;15.40;;
7074;SDS011;3578;51.568;6.932;2022-12-18T14:34:36;16.20;;;13.53;;
7074;SDS011;3578;51.568;6.932;2022-12-18T14:37:03;19.87;;;14.83;;
7074;SDS011;3578;51.568;6.932;2022-12-18T14:39:33;20.50;;;14.90;;
7074;SDS011;3578;51.568;6.932;2022-12-18T14:42:00;16.50;;;13.90;;
7074;SDS011;3578;51.568;6.932;2022-12-18T14:44:27;20.97;;;15.10;;
7074;SDS011;3578;51.568;6.932;2022-12-18T14:46:54;18.40;;;15.03;;
7074;SDS011;3578;51.568;6.932;2022-12-18T14:49:23;21.93;;;16.47;;
7074;SDS011;3578;51.568;6.932;2022-12-18T14:51:55;23.57;;;15.27;;
7074;SDS011;3578;51.568;6.932;2022-12-18T14:54:25;18.20;;;12.97;;
7074;SDS011;3578;51.568;6.932;2022-12-18T14:56:56;16.53;;;13.10;;
7074;SDS011;3578;51.568;6.932;2022-12-18T14:59:28;19.10;;;12.57;;
7074;SDS011;3578;51.568;6.932;2022-12-18T15:01:58;16.00;;;11.60;;
7074;SDS011;3578;51.568;6.932;2022-12-18T15:04:31;24.30;;;14.70;;
7074;SDS011;3578;51.568;6.932;2022-12-18T15:07:04;20.00;;;12.90;;
7074;SDS011;3578;51.568;6.932;2022-12-18T15:09:39;15.97;;;14.30;;
7074;SDS011;3578;51.568;6.932;2022-12-18T15:12:24;19.03;;;15.60;;
7074;SDS011;3578;51.568;6.932;2022-12-18T15:14:59;21.67;;;15.47;;
7074;SDS011;3578;51.568;6.932;2022-12-18T15:17:26;18.93;;;15.40;;
7074;SDS011;3578;51.568;6.932;2022-12-18T15:19:58;21.37;;;16.50;;
7074;SDS011;3578;51.568;6.932;2022-12-18T15:22:27;21.50;;;16.40;;
7074;SDS011;3578;51.568;6.932;2022-12-18T15:24:57;18.83;;;14.97;;
7074;SDS011;3578;51.568;6.932;2022-12-18T15:27:27;19.27;;;14.00;;
7074;SDS011;3578;51.568;6.932;2022-12-18T15:32:47;22.57;;;15.77;;
7074;SDS011;3578;51.568;6.932;2022-12-18T15:35:17;18.70;;;14.77;;